sensor_id;sensor_type;location;lat;lon;timestamp;temperature;humidity
2999;DHT22;1509;51.964;7.628;2023-04-19T00:01:53;11.30;99.90
2999;DHT22;1509;51.964;7.628;2023-04-19T00:04:18;11.30;99.90
2999;DHT22;1509;51.964;7.628;2023-04-19T00:06:44;11.20;99.90
2999;DHT22;1509;51.964;7.628;2023-04-19T00:09:14;11.10;99.90
2999;DHT22;1509;51.964;7.628;2023-04-19T00:11:40;11.10;99.90
2999;DHT22;1509;51.964;7.628;2023-04-19T00:14:05;11.00;99.90
2999;DHT22;1509;51.964;7.628;2023-04-19T00:16:31;11.00;99.90
2999;DHT22;1509;51.964;7.628;2023-04-19T00:18:59;10.80;99.90
2999;DHT22;1509;51.964;7.628;2023-04-19T00:21:26;10.80;99.90
2999;DHT22;1509;51.964;7.628;2023-04-19T00:23:52;10.70;99.90
2999;DHT22;1509;51.964;7.628;2023-04-19T00:26:18;10.70;99.90
2999;DHT22;1509;51.964;7.628;2023-04-19T00:28:44;10.80;99.90
2999;DHT22;1509;51.964;7.628;2023-04-19T00:31:10;10.60;99.90
2999;DHT22;1509;51.964;7.628;2023-04-19T00:33:35;10.60;99.90
2999;DHT22;1509;51.964;7.628;2023-04-19T00:36:01;10.60;99.90
2999;DHT22;1509;51.964;7.628;2023-04-19T00:38:27;10.50;99.90
2999;DHT22;1509;51.964;7.628;2023-04-19T00:40:53;10.60;99.90
2999;DHT22;1509;51.964;7.628;2023-04-19T00:43:19;10.50;99.90
2999;DHT22;1509;51.964;7.628;2023-04-19T00:45:45;10.50;99.90
2999;DHT22;1509;51.964;7.628;2023-04-19T00:48:13;10.50;99.90
2999;DHT22;1509;51.964;7.628;2023-04-19T00:50:39;10.50;99.90
2999;DHT22;1509;51.964;7.628;2023-04-19T00:53:06;10.50;99.90
2999;DHT22;1509;51.964;7.628;2023-04-19T00:55:32;10.60;99.90
2999;DHT22;1509;51.964;7.628;2023-04-19T00:57:58;10.60;99.90
2999;DHT22;1509;51.964;7.628;2023-04-19T01:00:24;10.60;99.90
2999;DHT22;1509;51.964;7.628;2023-04-19T01:02:49;10.60;99.90
2999;DHT22;1509;51.964;7.628;2023-04-19T01:05:15;10.60;99.90
2999;DHT22;1509;51.964;7.628;2023-04-19T01:07:42;10.50;99.90
2999;DHT22;1509;51.964;7.628;2023-04-19T01:10:08;10.50;99.90
2999;DHT22;1509;51.964;7.628;2023-04-19T01:12:34;10.50;99.90
2999;DHT22;1509;51.964;7.628;2023-04-19T01:15:00;10.60;99.90
2999;DHT22;1509;51.964;7.628;2023-04-19T01:17:26;10.60;99.90
2999;DHT22;1509;51.964;7.628;2023-04-19T01:20:02;10.60;99.90
2999;DHT22;1509;51.964;7.628;2023-04-19T01:22:28;10.60;99.90
2999;DHT22;1509;51.964;7.628;2023-04-19T01:24:55;10.60;99.90
2999;DHT22;1509;51.964;7.628;2023-04-19T01:27:20;10.60;99.90
2999;DHT22;1509;51.964;7.628;2023-04-19T01:29:50;10.50;99.90
2999;DHT22;1509;51.964;7.628;2023-04-19T01:32:16;10.60;99.90
2999;DHT22;1509;51.964;7.628;2023-04-19T01:34:42;10.50;99.90
2999;DHT22;1509;51.964;7.628;2023-04-19T01:37:07;10.60;99.90
2999;DHT22;1509;51.964;7.628;2023-04-19T01:39:33;10.60;99.90
2999;DHT22;1509;51.964;7.628;2023-04-19T01:41:59;10.60;99.90
2999;DHT22;1509;51.964;7.628;2023-04-19T01:44:25;10.60;99.90
2999;DHT22;1509;51.964;7.628;2023-04-19T01:46:51;10.70;99.90
2999;DHT22;1509;51.964;7.628;2023-04-19T01:49:17;10.60;99.90
2999;DHT22;1509;51.964;7.628;2023-04-19T01:51:42;10.60;99.90
2999;DHT22;1509;51.964;7.628;2023-04-19T01:54:08;10.60;99.90
2999;DHT22;1509;51.964;7.628;2023-04-19T01:56:33;10.60;99.90
2999;DHT22;1509;51.964;7.628;2023-04-19T01:58:59;10.70;99.90
2999;DHT22;1509;51.964;7.628;2023-04-19T02:01:25;10.70;99.90
2999;DHT22;1509;51.964;7.628;2023-04-19T02:03:50;10.60;99.90
2999;DHT22;1509;51.964;7.628;2023-04-19T02:06:16;10.80;99.90
2999;DHT22;1509;51.964;7.628;2023-04-19T02:08:42;10.60;99.90
2999;DHT22;1509;51.964;7.628;2023-04-19T02:11:11;10.50;99.90
2999;DHT22;1509;51.964;7.628;2023-04-19T02:13:40;10.60;99.90
2999;DHT22;1509;51.964;7.628;2023-04-19T02:16:07;10.60;99.90
2999;DHT22;1509;51.964;7.628;2023-04-19T02:18:33;10.50;99.90
2999;DHT22;1509;51.964;7.628;2023-04-19T02:21:05;10.30;99.90
2999;DHT22;1509;51.964;7.628;2023-04-19T02:23:31;10.50;99.90
2999;DHT22;1509;51.964;7.628;2023-04-19T02:25:57;10.40;99.90
2999;DHT22;1509;51.964;7.628;2023-04-19T02:28:23;10.40;99.90
2999;DHT22;1509;51.964;7.628;2023-04-19T02:30:48;10.40;99.90
2999;DHT22;1509;51.964;7.628;2023-04-19T02:33:14;10.40;99.90
2999;DHT22;1509;51.964;7.628;2023-04-19T02:35:40;10.30;99.90
2999;DHT22;1509;51.964;7.628;2023-04-19T02:38:05;10.40;99.90
2999;DHT22;1509;51.964;7.628;2023-04-19T02:40:31;10.50;99.90
2999;DHT22;1509;51.964;7.628;2023-04-19T02:42:59;10.40;99.90
2999;DHT22;1509;51.964;7.628;2023-04-19T02:45:25;10.30;99.90
2999;DHT22;1509;51.964;7.628;2023-04-19T02:47:50;10.30;99.90
2999;DHT22;1509;51.964;7.628;2023-04-19T02:50:16;10.20;99.90
2999;DHT22;1509;51.964;7.628;2023-04-19T02:52:42;10.40;99.90
2999;DHT22;1509;51.964;7.628;2023-04-19T02:55:08;10.30;99.90
2999;DHT22;1509;51.964;7.628;2023-04-19T02:57:33;10.20;99.90
2999;DHT22;1509;51.964;7.628;2023-04-19T02:59:59;10.30;99.90
2999;DHT22;1509;51.964;7.628;2023-04-19T03:02:25;10.20;99.90
2999;DHT22;1509;51.964;7.628;2023-04-19T03:04:50;10.20;99.90
2999;DHT22;1509;51.964;7.628;2023-04-19T03:07:17;10.30;99.90
2999;DHT22;1509;51.964;7.628;2023-04-19T03:09:43;10.20;99.90
2999;DHT22;1509;51.964;7.628;2023-04-19T03:12:08;10.10;99.90
2999;DHT22;1509;51.964;7.628;2023-04-19T03:14:34;10.20;99.90
2999;DHT22;1509;51.964;7.628;2023-04-19T03:17:00;10.20;99.90
2999;DHT22;1509;51.964;7.628;2023-04-19T03:19:25;10.10;99.90
2999;DHT22;1509;51.964;7.628;2023-04-19T03:21:51;10.30;99.90
2999;DHT22;1509;51.964;7.628;2023-04-19T03:24:26;10.00;99.90
2999;DHT22;1509;51.964;7.628;2023-04-19T03:26:51;10.10;99.90
2999;DHT22;1509;51.964;7.628;2023-04-19T03:29:17;10.10;99.90
2999;DHT22;1509;51.964;7.628;2023-04-19T03:31:42;10.30;99.90
2999;DHT22;1509;51.964;7.628;2023-04-19T03:34:11;10.00;99.90
2999;DHT22;1509;51.964;7.628;2023-04-19T03:36:38;10.10;99.90
2999;DHT22;1509;51.964;7.628;2023-04-19T03:39:03;9.90;99.90
2999;DHT22;1509;51.964;7.628;2023-04-19T03:41:29;10.00;99.90
2999;DHT22;1509;51.964;7.628;2023-04-19T03:43:54;10.10;99.90
2999;DHT22;1509;51.964;7.628;2023-04-19T03:46:22;10.20;99.90
2999;DHT22;1509;51.964;7.628;2023-04-19T03:48:48;10.10;99.90
2999;DHT22;1509;51.964;7.628;2023-04-19T03:51:14;10.10;99.90
2999;DHT22;1509;51.964;7.628;2023-04-19T03:53:40;10.10;99.90
2999;DHT22;1509;51.964;7.628;2023-04-19T03:56:06;9.90;99.90
2999;DHT22;1509;51.964;7.628;2023-04-19T03:58:32;9.80;99.90
2999;DHT22;1509;51.964;7.628;2023-04-19T04:00:58;9.80;99.90
2999;DHT22;1509;51.964;7.628;2023-04-19T04:03:24;9.80;99.90
2999;DHT22;1509;51.964;7.628;2023-04-19T04:05:49;9.70;99.90
2999;DHT22;1509;51.964;7.628;2023-04-19T04:08:15;9.50;99.90
2999;DHT22;1509;51.964;7.628;2023-04-19T04:10:41;9.60;99.90
2999;DHT22;1509;51.964;7.628;2023-04-19T04:13:06;9.60;99.90
2999;DHT22;1509;51.964;7.628;2023-04-19T04:15:32;9.60;99.90
2999;DHT22;1509;51.964;7.628;2023-04-19T04:17:58;9.70;99.90
2999;DHT22;1509;51.964;7.628;2023-04-19T04:20:23;9.60;99.90
2999;DHT22;1509;51.964;7.628;2023-04-19T04:22:49;9.60;99.90
2999;DHT22;1509;51.964;7.628;2023-04-19T04:25:15;9.60;99.90
2999;DHT22;1509;51.964;7.628;2023-04-19T04:27:41;9.70;99.90
2999;DHT22;1509;51.964;7.628;2023-04-19T04:30:08;9.40;99.90
2999;DHT22;1509;51.964;7.628;2023-04-19T04:32:34;9.40;99.90
2999;DHT22;1509;51.964;7.628;2023-04-19T04:35:01;9.30;99.90
2999;DHT22;1509;51.964;7.628;2023-04-19T04:37:27;9.30;99.90
2999;DHT22;1509;51.964;7.628;2023-04-19T04:39:52;9.10;99.90
2999;DHT22;1509;51.964;7.628;2023-04-19T04:42:18;9.10;99.90
2999;DHT22;1509;51.964;7.628;2023-04-19T04:44:46;9.00;99.90
2999;DHT22;1509;51.964;7.628;2023-04-19T04:47:12;8.80;99.90
2999;DHT22;1509;51.964;7.628;2023-04-19T04:49:38;8.60;99.90
2999;DHT22;1509;51.964;7.628;2023-04-19T04:52:04;8.70;99.90
2999;DHT22;1509;51.964;7.628;2023-04-19T04:54:30;8.70;99.90
2999;DHT22;1509;51.964;7.628;2023-04-19T04:56:57;8.70;99.90
2999;DHT22;1509;51.964;7.628;2023-04-19T04:59:23;8.80;99.90
2999;DHT22;1509;51.964;7.628;2023-04-19T05:01:48;8.70;99.90
2999;DHT22;1509;51.964;7.628;2023-04-19T05:04:14;8.50;99.90
2999;DHT22;1509;51.964;7.628;2023-04-19T05:06:40;8.50;99.90
2999;DHT22;1509;51.964;7.628;2023-04-19T05:09:06;8.50;99.90
2999;DHT22;1509;51.964;7.628;2023-04-19T05:11:32;8.60;99.90
2999;DHT22;1509;51.964;7.628;2023-04-19T05:13:58;8.70;99.90
2999;DHT22;1509;51.964;7.628;2023-04-19T05:16:25;8.50;99.90
2999;DHT22;1509;51.964;7.628;2023-04-19T05:18:50;8.60;99.90
2999;DHT22;1509;51.964;7.628;2023-04-19T05:21:16;8.60;99.90
2999;DHT22;1509;51.964;7.628;2023-04-19T05:23:41;8.70;99.90
2999;DHT22;1509;51.964;7.628;2023-04-19T05:26:07;8.70;99.90
2999;DHT22;1509;51.964;7.628;2023-04-19T05:28:37;8.70;99.90
2999;DHT22;1509;51.964;7.628;2023-04-19T05:31:03;8.80;99.90
2999;DHT22;1509;51.964;7.628;2023-04-19T05:33:28;8.80;99.90
2999;DHT22;1509;51.964;7.628;2023-04-19T05:35:54;8.80;99.90
2999;DHT22;1509;51.964;7.628;2023-04-19T05:38:19;8.70;99.90
2999;DHT22;1509;51.964;7.628;2023-04-19T05:40:45;8.80;99.90
2999;DHT22;1509;51.964;7.628;2023-04-19T05:43:11;8.80;99.90
2999;DHT22;1509;51.964;7.628;2023-04-19T05:45:36;8.60;99.90
2999;DHT22;1509;51.964;7.628;2023-04-19T05:48:02;8.80;99.90
2999;DHT22;1509;51.964;7.628;2023-04-19T05:50:28;8.80;99.90
2999;DHT22;1509;51.964;7.628;2023-04-19T05:52:53;8.90;99.90
2999;DHT22;1509;51.964;7.628;2023-04-19T05:55:19;8.90;99.90
2999;DHT22;1509;51.964;7.628;2023-04-19T05:57:45;9.00;99.90
2999;DHT22;1509;51.964;7.628;2023-04-19T06:00:11;8.70;99.90
2999;DHT22;1509;51.964;7.628;2023-04-19T06:02:36;8.70;99.90
2999;DHT22;1509;51.964;7.628;2023-04-19T06:05:02;8.60;99.90
2999;DHT22;1509;51.964;7.628;2023-04-19T06:07:31;8.60;99.90
2999;DHT22;1509;51.964;7.628;2023-04-19T06:09:57;8.30;99.90
2999;DHT22;1509;51.964;7.628;2023-04-19T06:12:23;8.40;99.90
2999;DHT22;1509;51.964;7.628;2023-04-19T06:14:48;8.30;99.90
2999;DHT22;1509;51.964;7.628;2023-04-19T06:17:14;8.10;99.90
2999;DHT22;1509;51.964;7.628;2023-04-19T06:19:41;8.20;99.90
2999;DHT22;1509;51.964;7.628;2023-04-19T06:22:07;8.10;99.90
2999;DHT22;1509;51.964;7.628;2023-04-19T06:24:32;8.10;99.90
2999;DHT22;1509;51.964;7.628;2023-04-19T06:26:58;8.10;99.90
2999;DHT22;1509;51.964;7.628;2023-04-19T06:29:24;8.10;99.90
2999;DHT22;1509;51.964;7.628;2023-04-19T06:31:50;8.10;99.90
2999;DHT22;1509;51.964;7.628;2023-04-19T06:34:15;8.20;99.90
2999;DHT22;1509;51.964;7.628;2023-04-19T06:36:41;8.20;99.90
2999;DHT22;1509;51.964;7.628;2023-04-19T06:39:07;8.20;99.90
2999;DHT22;1509;51.964;7.628;2023-04-19T06:41:32;8.30;99.90
2999;DHT22;1509;51.964;7.628;2023-04-19T06:44:16;8.20;99.90
2999;DHT22;1509;51.964;7.628;2023-04-19T06:46:42;8.40;99.90
2999;DHT22;1509;51.964;7.628;2023-04-19T06:49:07;8.40;99.90
2999;DHT22;1509;51.964;7.628;2023-04-19T06:51:33;8.50;99.90
2999;DHT22;1509;51.964;7.628;2023-04-19T06:53:58;8.70;99.90
2999;DHT22;1509;51.964;7.628;2023-04-19T06:56:47;8.60;99.90
2999;DHT22;1509;51.964;7.628;2023-04-19T06:59:18;8.70;99.90
2999;DHT22;1509;51.964;7.628;2023-04-19T07:01:44;8.70;99.90
2999;DHT22;1509;51.964;7.628;2023-04-19T07:04:20;8.60;99.90
2999;DHT22;1509;51.964;7.628;2023-04-19T07:06:48;8.70;99.90
2999;DHT22;1509;51.964;7.628;2023-04-19T07:09:16;8.90;99.90
2999;DHT22;1509;51.964;7.628;2023-04-19T07:11:42;9.00;99.90
2999;DHT22;1509;51.964;7.628;2023-04-19T07:14:08;9.00;99.90
2999;DHT22;1509;51.964;7.628;2023-04-19T07:16:33;9.10;99.90
2999;DHT22;1509;51.964;7.628;2023-04-19T07:19:02;9.00;99.90
2999;DHT22;1509;51.964;7.628;2023-04-19T07:21:28;9.10;99.90
2999;DHT22;1509;51.964;7.628;2023-04-19T07:23:57;9.20;99.90
2999;DHT22;1509;51.964;7.628;2023-04-19T07:26:23;9.20;99.90
2999;DHT22;1509;51.964;7.628;2023-04-19T07:28:49;9.20;99.90
2999;DHT22;1509;51.964;7.628;2023-04-19T07:31:18;9.20;99.90
2999;DHT22;1509;51.964;7.628;2023-04-19T07:33:44;9.30;99.90
2999;DHT22;1509;51.964;7.628;2023-04-19T07:36:13;9.40;99.90
2999;DHT22;1509;51.964;7.628;2023-04-19T07:38:38;9.40;99.90
2999;DHT22;1509;51.964;7.628;2023-04-19T07:41:05;9.60;99.90
2999;DHT22;1509;51.964;7.628;2023-04-19T07:43:34;9.70;99.90
2999;DHT22;1509;51.964;7.628;2023-04-19T07:46:00;9.80;99.90
2999;DHT22;1509;51.964;7.628;2023-04-19T07:48:25;9.80;99.90
2999;DHT22;1509;51.964;7.628;2023-04-19T07:50:51;9.90;99.90
2999;DHT22;1509;51.964;7.628;2023-04-19T07:53:17;9.90;99.90
2999;DHT22;1509;51.964;7.628;2023-04-19T07:55:43;9.80;99.90
2999;DHT22;1509;51.964;7.628;2023-04-19T07:58:10;10.10;99.90
2999;DHT22;1509;51.964;7.628;2023-04-19T08:00:36;10.10;99.90
2999;DHT22;1509;51.964;7.628;2023-04-19T08:03:02;10.10;99.90
2999;DHT22;1509;51.964;7.628;2023-04-19T08:05:30;10.10;99.90
2999;DHT22;1509;51.964;7.628;2023-04-19T08:07:59;10.20;99.90
2999;DHT22;1509;51.964;7.628;2023-04-19T08:10:24;10.30;99.90
2999;DHT22;1509;51.964;7.628;2023-04-19T08:12:53;10.40;99.90
2999;DHT22;1509;51.964;7.628;2023-04-19T08:15:18;10.40;99.90
2999;DHT22;1509;51.964;7.628;2023-04-19T08:17:45;10.50;99.90
2999;DHT22;1509;51.964;7.628;2023-04-19T08:20:11;10.50;99.90
2999;DHT22;1509;51.964;7.628;2023-04-19T08:22:40;10.60;99.90
2999;DHT22;1509;51.964;7.628;2023-04-19T08:40:04;11.50;99.90
2999;DHT22;1509;51.964;7.628;2023-04-19T08:42:34;11.70;99.90
2999;DHT22;1509;51.964;7.628;2023-04-19T08:45:07;12.20;99.90
2999;DHT22;1509;51.964;7.628;2023-04-19T08:47:39;12.60;99.90
2999;DHT22;1509;51.964;7.628;2023-04-19T08:50:24;13.00;99.90
2999;DHT22;1509;51.964;7.628;2023-04-19T08:52:53;13.80;99.90
2999;DHT22;1509;51.964;7.628;2023-04-19T08:55:22;15.10;99.90
2999;DHT22;1509;51.964;7.628;2023-04-19T08:57:47;15.90;99.90
2999;DHT22;1509;51.964;7.628;2023-04-19T09:00:14;16.40;99.90
2999;DHT22;1509;51.964;7.628;2023-04-19T09:05:12;17.20;99.90
2999;DHT22;1509;51.964;7.628;2023-04-19T09:07:38;17.50;99.90
2999;DHT22;1509;51.964;7.628;2023-04-19T09:10:05;17.50;99.90
2999;DHT22;1509;51.964;7.628;2023-04-19T09:12:33;17.50;99.90
2999;DHT22;1509;51.964;7.628;2023-04-19T09:15:00;17.70;99.90
2999;DHT22;1509;51.964;7.628;2023-04-19T09:17:26;18.20;99.90
2999;DHT22;1509;51.964;7.628;2023-04-19T09:19:52;17.40;99.90
2999;DHT22;1509;51.964;7.628;2023-04-19T09:22:18;17.50;99.90
2999;DHT22;1509;51.964;7.628;2023-04-19T09:24:47;17.70;99.90
2999;DHT22;1509;51.964;7.628;2023-04-19T09:27:25;17.20;99.40
2999;DHT22;1509;51.964;7.628;2023-04-19T09:29:55;17.90;98.50
2999;DHT22;1509;51.964;7.628;2023-04-19T09:37:18;18.50;97.50
2999;DHT22;1509;51.964;7.628;2023-04-19T09:39:44;17.30;96.90
2999;DHT22;1509;51.964;7.628;2023-04-19T09:42:09;17.20;97.70
2999;DHT22;1509;51.964;7.628;2023-04-19T09:47:02;18.90;97.30
2999;DHT22;1509;51.964;7.628;2023-04-19T09:50:05;19.60;98.00
2999;DHT22;1509;51.964;7.628;2023-04-19T09:52:32;20.70;97.30
2999;DHT22;1509;51.964;7.628;2023-04-19T09:55:03;21.10;97.90
2999;DHT22;1509;51.964;7.628;2023-04-19T09:57:33;21.50;96.30
2999;DHT22;1509;51.964;7.628;2023-04-19T09:59:59;21.50;94.90
2999;DHT22;1509;51.964;7.628;2023-04-19T10:02:31;21.80;95.50
2999;DHT22;1509;51.964;7.628;2023-04-19T10:04:58;21.50;93.20
2999;DHT22;1509;51.964;7.628;2023-04-19T10:07:25;21.10;93.10
2999;DHT22;1509;51.964;7.628;2023-04-19T10:12:52;22.50;93.10
2999;DHT22;1509;51.964;7.628;2023-04-19T10:15:20;22.90;91.90
2999;DHT22;1509;51.964;7.628;2023-04-19T10:20:22;22.90;90.70
2999;DHT22;1509;51.964;7.628;2023-04-19T10:25:18;23.30;90.10
2999;DHT22;1509;51.964;7.628;2023-04-19T10:27:52;23.00;87.20
2999;DHT22;1509;51.964;7.628;2023-04-19T10:30:22;22.70;88.10
2999;DHT22;1509;51.964;7.628;2023-04-19T10:32:53;22.00;88.60
2999;DHT22;1509;51.964;7.628;2023-04-19T10:35:46;21.70;89.60
2999;DHT22;1509;51.964;7.628;2023-04-19T10:38:13;22.90;90.10
2999;DHT22;1509;51.964;7.628;2023-04-19T10:43:19;24.20;89.30
2999;DHT22;1509;51.964;7.628;2023-04-19T10:45:46;24.60;89.80
2999;DHT22;1509;51.964;7.628;2023-04-19T10:51:02;25.60;87.80
2999;DHT22;1509;51.964;7.628;2023-04-19T10:53:55;25.80;87.20
2999;DHT22;1509;51.964;7.628;2023-04-19T10:59:14;24.80;84.40
2999;DHT22;1509;51.964;7.628;2023-04-19T11:01:50;24.80;85.50
2999;DHT22;1509;51.964;7.628;2023-04-19T11:09:32;24.50;80.00
2999;DHT22;1509;51.964;7.628;2023-04-19T11:12:06;24.00;80.10
2999;DHT22;1509;51.964;7.628;2023-04-19T11:14:43;24.30;78.20
2999;DHT22;1509;51.964;7.628;2023-04-19T11:17:17;24.40;77.40
2999;DHT22;1509;51.964;7.628;2023-04-19T11:19:58;24.40;77.60
2999;DHT22;1509;51.964;7.628;2023-04-19T11:22:35;24.20;77.30
2999;DHT22;1509;51.964;7.628;2023-04-19T11:25:20;23.70;77.20
2999;DHT22;1509;51.964;7.628;2023-04-19T11:27:48;24.30;79.50
2999;DHT22;1509;51.964;7.628;2023-04-19T11:30:16;24.50;77.80
2999;DHT22;1509;51.964;7.628;2023-04-19T11:32:54;24.30;77.80
2999;DHT22;1509;51.964;7.628;2023-04-19T11:35:22;23.40;75.70
2999;DHT22;1509;51.964;7.628;2023-04-19T11:37:49;23.10;76.70
2999;DHT22;1509;51.964;7.628;2023-04-19T11:40:17;23.00;75.00
2999;DHT22;1509;51.964;7.628;2023-04-19T11:42:43;23.00;75.80
2999;DHT22;1509;51.964;7.628;2023-04-19T11:45:10;23.00;76.20
2999;DHT22;1509;51.964;7.628;2023-04-19T11:47:47;23.60;76.60
2999;DHT22;1509;51.964;7.628;2023-04-19T11:53:14;24.60;76.00
2999;DHT22;1509;51.964;7.628;2023-04-19T11:55:55;25.00;76.20
2999;DHT22;1509;51.964;7.628;2023-04-19T11:58:30;25.60;76.00
2999;DHT22;1509;51.964;7.628;2023-04-19T12:01:07;24.90;74.30
2999;DHT22;1509;51.964;7.628;2023-04-19T12:03:53;24.30;75.80
2999;DHT22;1509;51.964;7.628;2023-04-19T12:06:31;24.30;76.20
2999;DHT22;1509;51.964;7.628;2023-04-19T12:09:06;24.10;74.40
2999;DHT22;1509;51.964;7.628;2023-04-19T12:11:46;24.30;76.00
2999;DHT22;1509;51.964;7.628;2023-04-19T12:14:21;24.20;76.20
2999;DHT22;1509;51.964;7.628;2023-04-19T12:17:10;23.90;76.60
2999;DHT22;1509;51.964;7.628;2023-04-19T12:19:45;24.00;76.00
2999;DHT22;1509;51.964;7.628;2023-04-19T12:22:19;24.30;77.80
2999;DHT22;1509;51.964;7.628;2023-04-19T12:24:51;24.70;76.40
2999;DHT22;1509;51.964;7.628;2023-04-19T12:27:21;25.40;76.30
2999;DHT22;1509;51.964;7.628;2023-04-19T12:29:58;25.20;74.50
2999;DHT22;1509;51.964;7.628;2023-04-19T12:32:33;25.00;73.00
2999;DHT22;1509;51.964;7.628;2023-04-19T12:34:59;25.20;71.60
2999;DHT22;1509;51.964;7.628;2023-04-19T12:37:25;25.00;71.90
2999;DHT22;1509;51.964;7.628;2023-04-19T12:39:51;24.80;72.70
2999;DHT22;1509;51.964;7.628;2023-04-19T12:42:18;25.00;72.40
2999;DHT22;1509;51.964;7.628;2023-04-19T12:44:44;24.90;71.00
2999;DHT22;1509;51.964;7.628;2023-04-19T12:47:14;24.70;70.20
2999;DHT22;1509;51.964;7.628;2023-04-19T12:49:44;24.60;70.80
2999;DHT22;1509;51.964;7.628;2023-04-19T12:52:10;24.30;70.50
2999;DHT22;1509;51.964;7.628;2023-04-19T12:54:35;24.40;70.30
2999;DHT22;1509;51.964;7.628;2023-04-19T12:57:01;24.40;68.40
2999;DHT22;1509;51.964;7.628;2023-04-19T12:59:30;24.40;68.60
2999;DHT22;1509;51.964;7.628;2023-04-19T13:01:56;24.00;70.20
2999;DHT22;1509;51.964;7.628;2023-04-19T13:04:21;23.50;70.10
2999;DHT22;1509;51.964;7.628;2023-04-19T13:06:47;23.10;69.50
2999;DHT22;1509;51.964;7.628;2023-04-19T13:09:13;23.10;69.50
2999;DHT22;1509;51.964;7.628;2023-04-19T13:11:38;23.60;69.80
2999;DHT22;1509;51.964;7.628;2023-04-19T13:14:04;23.70;69.60
2999;DHT22;1509;51.964;7.628;2023-04-19T13:16:32;23.80;70.80
2999;DHT22;1509;51.964;7.628;2023-04-19T13:18:58;23.60;71.70
2999;DHT22;1509;51.964;7.628;2023-04-19T13:21:24;22.80;70.60
2999;DHT22;1509;51.964;7.628;2023-04-19T13:23:53;22.60;72.10
2999;DHT22;1509;51.964;7.628;2023-04-19T13:26:19;22.70;72.90
2999;DHT22;1509;51.964;7.628;2023-04-19T13:28:45;22.90;72.30
2999;DHT22;1509;51.964;7.628;2023-04-19T13:31:10;22.50;69.90
2999;DHT22;1509;51.964;7.628;2023-04-19T13:33:36;21.50;70.20
2999;DHT22;1509;51.964;7.628;2023-04-19T13:36:02;21.40;71.40
2999;DHT22;1509;51.964;7.628;2023-04-19T13:38:28;21.50;71.00
2999;DHT22;1509;51.964;7.628;2023-04-19T13:40:56;21.90;72.20
2999;DHT22;1509;51.964;7.628;2023-04-19T13:43:21;22.00;71.00
2999;DHT22;1509;51.964;7.628;2023-04-19T13:45:47;22.00;71.20
2999;DHT22;1509;51.964;7.628;2023-04-19T13:48:13;21.60;71.00
2999;DHT22;1509;51.964;7.628;2023-04-19T13:50:38;21.20;70.30
2999;DHT22;1509;51.964;7.628;2023-04-19T13:53:04;20.70;69.40
2999;DHT22;1509;51.964;7.628;2023-04-19T13:55:30;20.40;70.00
2999;DHT22;1509;51.964;7.628;2023-04-19T13:57:55;20.50;68.40
2999;DHT22;1509;51.964;7.628;2023-04-19T14:00:22;20.50;68.90
2999;DHT22;1509;51.964;7.628;2023-04-19T14:02:48;20.70;68.40
2999;DHT22;1509;51.964;7.628;2023-04-19T14:05:14;20.80;68.50
2999;DHT22;1509;51.964;7.628;2023-04-19T14:07:40;20.50;68.20
2999;DHT22;1509;51.964;7.628;2023-04-19T14:10:07;19.90;67.60
2999;DHT22;1509;51.964;7.628;2023-04-19T14:12:33;19.30;67.10
2999;DHT22;1509;51.964;7.628;2023-04-19T14:14:59;19.20;65.90
2999;DHT22;1509;51.964;7.628;2023-04-19T14:17:25;19.20;65.50
2999;DHT22;1509;51.964;7.628;2023-04-19T14:19:50;19.00;64.80
2999;DHT22;1509;51.964;7.628;2023-04-19T14:22:16;19.10;64.90
2999;DHT22;1509;51.964;7.628;2023-04-19T14:24:42;19.30;65.30
2999;DHT22;1509;51.964;7.628;2023-04-19T14:27:10;19.30;65.50
2999;DHT22;1509;51.964;7.628;2023-04-19T14:29:42;19.50;65.90
2999;DHT22;1509;51.964;7.628;2023-04-19T14:32:08;19.50;64.70
2999;DHT22;1509;51.964;7.628;2023-04-19T14:34:33;19.30;67.20
2999;DHT22;1509;51.964;7.628;2023-04-19T14:36:59;19.30;66.40
2999;DHT22;1509;51.964;7.628;2023-04-19T14:39:24;19.30;65.40
2999;DHT22;1509;51.964;7.628;2023-04-19T14:41:50;19.20;66.30
2999;DHT22;1509;51.964;7.628;2023-04-19T14:44:16;18.90;65.40
2999;DHT22;1509;51.964;7.628;2023-04-19T14:46:41;18.70;66.70
2999;DHT22;1509;51.964;7.628;2023-04-19T14:49:07;18.80;64.90
2999;DHT22;1509;51.964;7.628;2023-04-19T14:51:33;18.60;64.20
2999;DHT22;1509;51.964;7.628;2023-04-19T14:54:01;18.30;64.40
2999;DHT22;1509;51.964;7.628;2023-04-19T14:56:27;18.20;65.10
2999;DHT22;1509;51.964;7.628;2023-04-19T14:58:55;18.30;66.40
2999;DHT22;1509;51.964;7.628;2023-04-19T15:01:21;18.40;66.90
2999;DHT22;1509;51.964;7.628;2023-04-19T15:03:48;18.60;66.20
2999;DHT22;1509;51.964;7.628;2023-04-19T15:06:14;18.70;66.70
2999;DHT22;1509;51.964;7.628;2023-04-19T15:08:40;18.80;64.80
2999;DHT22;1509;51.964;7.628;2023-04-19T15:11:08;18.80;64.90
2999;DHT22;1509;51.964;7.628;2023-04-19T15:13:33;18.70;64.70
2999;DHT22;1509;51.964;7.628;2023-04-19T15:16:00;18.60;65.20
2999;DHT22;1509;51.964;7.628;2023-04-19T15:18:28;18.50;65.10
2999;DHT22;1509;51.964;7.628;2023-04-19T15:20:54;18.60;64.20
2999;DHT22;1509;51.964;7.628;2023-04-19T15:23:23;18.30;63.20
2999;DHT22;1509;51.964;7.628;2023-04-19T15:25:50;18.20;64.20
2999;DHT22;1509;51.964;7.628;2023-04-19T15:28:16;18.10;63.70
2999;DHT22;1509;51.964;7.628;2023-04-19T15:30:41;17.90;63.10
2999;DHT22;1509;51.964;7.628;2023-04-19T15:33:07;17.90;63.30
2999;DHT22;1509;51.964;7.628;2023-04-19T15:35:33;18.00;64.10
2999;DHT22;1509;51.964;7.628;2023-04-19T15:37:58;18.00;64.00
2999;DHT22;1509;51.964;7.628;2023-04-19T15:40:24;18.00;64.20
2999;DHT22;1509;51.964;7.628;2023-04-19T15:42:50;17.70;66.00
2999;DHT22;1509;51.964;7.628;2023-04-19T15:45:16;17.80;64.60
2999;DHT22;1509;51.964;7.628;2023-04-19T15:47:41;17.80;64.20
2999;DHT22;1509;51.964;7.628;2023-04-19T15:50:10;17.80;64.50
2999;DHT22;1509;51.964;7.628;2023-04-19T15:52:36;17.80;64.70
2999;DHT22;1509;51.964;7.628;2023-04-19T15:55:01;17.60;64.30
2999;DHT22;1509;51.964;7.628;2023-04-19T15:57:27;17.40;63.90
2999;DHT22;1509;51.964;7.628;2023-04-19T15:59:53;17.50;65.10
2999;DHT22;1509;51.964;7.628;2023-04-19T16:02:18;17.40;64.50
2999;DHT22;1509;51.964;7.628;2023-04-19T16:04:47;17.40;65.60
2999;DHT22;1509;51.964;7.628;2023-04-19T16:07:13;17.60;65.00
2999;DHT22;1509;51.964;7.628;2023-04-19T16:09:39;17.50;66.00
2999;DHT22;1509;51.964;7.628;2023-04-19T16:12:04;17.40;66.00
2999;DHT22;1509;51.964;7.628;2023-04-19T16:14:30;17.10;65.00
2999;DHT22;1509;51.964;7.628;2023-04-19T16:16:56;16.80;65.70
2999;DHT22;1509;51.964;7.628;2023-04-19T16:19:21;16.70;65.30
2999;DHT22;1509;51.964;7.628;2023-04-19T16:21:47;16.80;66.20
2999;DHT22;1509;51.964;7.628;2023-04-19T16:24:13;16.60;65.10
2999;DHT22;1509;51.964;7.628;2023-04-19T16:26:38;16.70;66.00
2999;DHT22;1509;51.964;7.628;2023-04-19T16:29:04;16.80;66.30
2999;DHT22;1509;51.964;7.628;2023-04-19T16:31:30;16.90;65.80
2999;DHT22;1509;51.964;7.628;2023-04-19T16:33:55;17.00;67.40
2999;DHT22;1509;51.964;7.628;2023-04-19T16:36:23;17.00;65.90
2999;DHT22;1509;51.964;7.628;2023-04-19T16:38:49;16.90;65.20
2999;DHT22;1509;51.964;7.628;2023-04-19T16:41:15;17.10;65.50
2999;DHT22;1509;51.964;7.628;2023-04-19T16:43:41;17.30;66.00
2999;DHT22;1509;51.964;7.628;2023-04-19T16:46:06;16.80;66.50
2999;DHT22;1509;51.964;7.628;2023-04-19T16:48:32;16.40;66.40
2999;DHT22;1509;51.964;7.628;2023-04-19T16:50:58;16.00;68.20
2999;DHT22;1509;51.964;7.628;2023-04-19T16:53:23;16.00;66.60
2999;DHT22;1509;51.964;7.628;2023-04-19T16:55:49;15.80;67.20